Dalton City, Illinois
Current Conditions -  °F | °C
As of 11:54 PM on Wednesday 28 Jan 2015 (Local Time) from KDEC Reporting Station
Clear Clear  
Wind Chill: 29°   Ceiling: Unl
Heat Index: 39°   Visibility: 10mi
Dew Point: 29°   Wind: 21mph
Humidity: 67%   Direction: 180°S
Pressure: 29.82"   Gusts: 29mph
Location:  39.71°N, 88.8°W
Report Text: KDEC 290554Z AUTO 18018G25KT 10SM CLR 04/M02 A2982 RMK AO2 SLP102 60000 T00391017 10039 20022 400501056 58027 TSNO
Loading
Personal Weather Stations






























Interactive Weather Map New forecast layout! Learn more

10-Day Weather Forecast

Advertisements
Track Severe Weather on mobile